Time;durP1;ratioP1;P1;durP2;ratioP2;P2;SDS_P1;SDS_P2;PMS_P1;PMS_P2;Temp;Humidity;BMP_temperature;BMP_pressure;BME280_temperature;BME280_humidity;BME280_pressure;Samples;Min_cycle;Max_cycle;Signal;HPM_P1;HPM_P2
2023/01/08 00:00:56;;;;;;;20.80;8.60;;;;;;;;;;1700245;82;21049;-45
2023/01/08 00:03:23;;;;;;;29.83;9.77;;;;;;;;;;1708015;82;21819;-43
2023/01/08 00:05:49;;;;;;;23.13;8.30;;;;;;;;;;1695101;82;21054;-45
2023/01/08 00:12:19;;;;;;;18.80;9.70;;;;;;;;;;103077;1290;600251;-46
2023/01/08 00:14:46;;;;;;;24.60;11.70;;;;;;;;;;104326;1264;59038;-44
2023/01/08 00:17:13;;;;;;;24.00;10.10;;;;;;;;;;104628;1266;59087;-44
2023/01/08 00:19:40;;;;;;;20.20;9.10;;;;;;;;;;105398;1254;61663;-44
2023/01/08 00:22:08;;;;;;;22.60;9.60;;;;;;;;;;105323;1267;59052;-44
2023/01/08 00:24:34;;;;;;;25.20;10.50;;;;;;;;;;105401;1259;61799;-45
2023/01/08 00:27:01;;;;;;;27.70;10.30;;;;;;;;;;105448;1256;160404;-42
2023/01/08 00:29:28;;;;;;;12.70;7.30;;;;;;;;;;105579;1257;59576;-45
2023/01/08 00:31:54;;;;;;;20.40;7.80;;;;;;;;;;105559;1257;61891;-44
2023/01/08 00:34:21;;;;;;;14.80;6.70;;;;;;;;;;105578;1257;59150;-43
2023/01/08 00:36:47;;;;;;;20.40;6.40;;;;;;;;;;105571;1256;61722;-41
2023/01/08 00:39:14;;;;;;;15.30;6.70;;;;;;;;;;105523;1261;59700;-42
2023/01/08 00:41:43;;;;;;;13.50;5.00;;;;;;;;;;105531;1253;60032;-46
2023/01/08 00:44:10;;;;;;;8.80;4.50;;;;;;;;;;106919;1251;61368;-42
2023/01/08 00:46:36;;;;;;;13.80;4.10;;;;;;;;;;105479;1257;59643;-42
2023/01/08 00:49:03;;;;;;;6.90;3.70;;;;;;;;;;105386;1251;63525;-42
2023/01/08 00:51:30;;;;;;;6.80;2.50;;;;;;;;;;105379;1258;59682;-45
2023/01/08 00:53:56;;;;;;;6.60;2.00;;;;;;;;;;105458;1254;59605;-45
2023/01/08 00:56:23;;;;;;;5.90;2.30;;;;;;;;;;105525;1254;61413;-44
2023/01/08 00:58:49;;;;;;;8.00;2.10;;;;;;;;;;105422;1251;59624;-43
2023/01/08 01:01:16;;;;;;;5.30;2.10;;;;;;;;;;105476;1252;61867;-45
2023/01/08 01:03:43;;;;;;;3.70;1.80;;;;;;;;;;106559;1255;58886;-44
2023/01/08 01:06:11;;;;;;;4.60;1.60;;;;;;;;;;105452;1254;59728;-44
2023/01/08 01:08:37;;;;;;;7.60;2.40;;;;;;;;;;105526;1254;62302;-45
2023/01/08 01:11:08;;;;;;;6.10;2.30;;;;;;;;;;105429;1254;59655;-45
2023/01/08 01:13:34;;;;;;;4.30;1.10;;;;;;;;;;105585;1257;61527;-43
2023/01/08 01:16:01;;;;;;;6.60;2.50;;;;;;;;;;105453;1257;59815;-43
2023/01/08 01:18:28;;;;;;;5.20;2.50;;;;;;;;;;105376;1254;59640;-43
2023/01/08 01:20:54;;;;;;;5.80;2.00;;;;;;;;;;105036;1255;61389;-45
2023/01/08 01:23:21;;;;;;;4.00;1.60;;;;;;;;;;105456;1254;59642;-46
2023/01/08 01:25:47;;;;;;;7.90;2.00;;;;;;;;;;105533;1254;61733;-43
2023/01/08 01:28:15;;;;;;;6.70;2.80;;;;;;;;;;105525;1257;59720;-42
2023/01/08 01:30:41;;;;;;;6.10;2.20;;;;;;;;;;105522;1254;59540;-43
2023/01/08 01:33:08;;;;;;;4.30;1.90;;;;;;;;;;105534;1254;62386;-41
2023/01/08 01:35:35;;;;;;;5.20;2.40;;;;;;;;;;105629;1260;59598;-45
2023/01/08 01:38:01;;;;;;;7.90;2.30;;;;;;;;;;105529;1253;60917;-42
2023/01/08 01:40:28;;;;;;;6.70;2.50;;;;;;;;;;105449;1254;59771;-47
2023/01/08 01:42:55;;;;;;;8.20;2.40;;;;;;;;;;105571;1254;59645;-43
2023/01/08 01:45:22;;;;;;;4.10;2.30;;;;;;;;;;105518;1257;62391;-43
2023/01/08 01:47:52;;;;;;;8.90;2.90;;;;;;;;;;105489;1258;59503;-43
2023/01/08 01:50:24;;;;;;;7.70;2.90;;;;;;;;;;105454;1257;61720;-41
2023/01/08 01:52:53;;;;;;;11.10;3.10;;;;;;;;;;105889;1257;59572;-44
2023/01/08 01:55:20;;;;;;;9.40;3.00;;;;;;;;;;105364;1254;59677;-45
2023/01/08 01:57:50;;;;;;;9.70;3.20;;;;;;;;;;105385;1254;62163;-46
2023/01/08 02:00:16;;;;;;;8.70;2.80;;;;;;;;;;105492;1254;59711;-42
2023/01/08 02:02:43;;;;;;;10.50;4.10;;;;;;;;;;105780;1254;60686;-45
2023/01/08 02:05:10;;;;;;;5.10;1.80;;;;;;;;;;105565;1254;59579;-42
2023/01/08 02:07:37;;;;;;;6.90;2.00;;;;;;;;;;105552;1254;59785;-43
2023/01/08 02:10:07;;;;;;;9.40;3.10;;;;;;;;;;105465;1254;61383;-46
2023/01/08 02:12:38;;;;;;;13.50;3.40;;;;;;;;;;105456;1254;59696;-45
2023/01/08 02:15:10;;;;;;;6.30;3.20;;;;;;;;;;105435;1254;60787;-44
2023/01/08 02:17:45;;;;;;;7.60;2.90;;;;;;;;;;105921;1258;59715;-43
2023/01/08 02:20:17;;;;;;;12.80;3.80;;;;;;;;;;105780;1257;59545;-43
2023/01/08 02:23:02;;;;;;;7.80;2.70;;;;;;;;;;106266;1254;61334;-40
2023/01/08 02:25:36;;;;;;;9.80;3.80;;;;;;;;;;105482;1254;59921;-45
2023/01/08 02:28:08;;;;;;;7.20;2.90;;;;;;;;;;105370;1254;61536;-41
2023/01/08 02:30:34;;;;;;;10.50;4.00;;;;;;;;;;105443;1258;60074;-43
2023/01/08 02:33:01;;;;;;;9.40;3.50;;;;;;;;;;106331;1254;59654;-43
2023/01/08 02:35:41;;;;;;;15.10;3.00;;;;;;;;;;105141;1254;62427;-43
2023/01/08 02:38:12;;;;;;;9.30;3.40;;;;;;;;;;105031;1258;59727;-42
2023/01/08 02:40:41;;;;;;;12.70;4.00;;;;;;;;;;109177;1251;62083;-44
2023/01/08 02:43:09;;;;;;;14.90;4.40;;;;;;;;;;109130;1253;57516;-42
2023/01/08 02:45:46;;;;;;;10.10;3.70;;;;;;;;;;107170;1256;59549;-42
2023/01/08 02:48:16;;;;;;;11.90;4.30;;;;;;;;;;109217;1254;61335;-45
2023/01/08 02:50:54;;;;;;;9.80;3.10;;;;;;;;;;109089;1252;57651;-44
2023/01/08 02:53:27;;;;;;;12.40;4.30;;;;;;;;;;109189;1251;61962;-42
2023/01/08 02:55:54;;;;;;;14.30;5.00;;;;;;;;;;109131;1251;57780;-45
2023/01/08 02:58:21;;;;;;;12.60;4.50;;;;;;;;;;109170;1253;57413;-43
2023/01/08 03:00:48;;;;;;;14.90;5.30;;;;;;;;;;109094;1253;61174;-42
2023/01/08 03:03:18;;;;;;;14.10;5.20;;;;;;;;;;107138;1254;59720;-47
2023/01/08 03:05:47;;;;;;;13.10;5.20;;;;;;;;;;105441;1254;60955;-44
2023/01/08 03:08:13;;;;;;;12.10;4.90;;;;;;;;;;109238;1253;57435;-44
2023/01/08 03:10:40;;;;;;;13.80;4.50;;;;;;;;;;109180;1252;57267;-45
2023/01/08 03:13:23;;;;;;;15.50;4.60;;;;;;;;;;109129;1251;62532;-44
2023/01/08 03:15:51;;;;;;;12.90;3.90;;;;;;;;;;109158;1253;57834;-44
2023/01/08 03:18:23;;;;;;;15.60;5.00;;;;;;;;;;109143;1253;62005;-43
2023/01/08 03:20:50;;;;;;;12.20;5.00;;;;;;;;;;109148;1253;58809;-46
2023/01/08 03:23:16;;;;;;;15.50;5.10;;;;;;;;;;109271;1254;57334;-44
2023/01/08 03:25:43;;;;;;;16.30;5.00;;;;;;;;;;109197;1254;61857;-44
2023/01/08 03:28:15;;;;;;;17.70;4.70;;;;;;;;;;109157;1253;57382;-46
2023/01/08 03:30:42;;;;;;;16.90;6.90;;;;;;;;;;106914;1257;61934;-43
2023/01/08 03:33:09;;;;;;;12.90;5.70;;;;;;;;;;105284;1254;59742;-44
2023/01/08 03:35:36;;;;;;;14.70;5.50;;;;;;;;;;105371;1253;59645;-46
2023/01/08 03:38:09;;;;;;;15.30;5.30;;;;;;;;;;105344;1254;61433;-47
2023/01/08 03:40:38;;;;;;;14.00;3.80;;;;;;;;;;105455;1256;59817;-45
2023/01/08 03:43:05;;;;;;;12.30;4.30;;;;;;;;;;105661;1251;61862;-44
2023/01/08 03:45:31;;;;;;;12.60;4.50;;;;;;;;;;105623;1253;60777;-41
2023/01/08 03:47:58;;;;;;;15.90;5.30;;;;;;;;;;105416;1257;59660;-44
2023/01/08 03:50:26;;;;;;;11.40;4.20;;;;;;;;;;105434;1254;61222;-44
2023/01/08 03:52:52;;;;;;;8.20;2.80;;;;;;;;;;105489;1254;59727;-44
2023/01/08 03:55:19;;;;;;;13.70;4.50;;;;;;;;;;105519;1253;61905;-42
2023/01/08 03:57:45;;;;;;;13.50;4.30;;;;;;;;;;105426;1253;59499;-43
2023/01/08 04:00:12;;;;;;;12.60;4.10;;;;;;;;;;105462;1253;59645;-46
2023/01/08 04:02:41;;;;;;;15.70;4.40;;;;;;;;;;105417;1254;62426;-40
2023/01/08 04:05:08;;;;;;;17.10;3.70;;;;;;;;;;106335;1254;59643;-43
2023/01/08 04:07:34;;;;;;;11.50;4.10;;;;;;;;;;105480;1258;60950;-45
2023/01/08 04:10:01;;;;;;;16.60;5.70;;;;;;;;;;105131;1253;59524;-42
2023/01/08 04:12:28;;;;;;;8.40;3.50;;;;;;;;;;105247;1254;59604;-45
2023/01/08 04:14:54;;;;;;;12.30;3.40;;;;;;;;;;105308;1253;61422;-42
2023/01/08 04:17:21;;;;;;;14.60;4.70;;;;;;;;;;105373;1253;59644;-44
2023/01/08 04:19:48;;;;;;;13.80;4.40;;;;;;;;;;105440;1255;60939;-42
2023/01/08 04:22:14;;;;;;;8.90;3.30;;;;;;;;;;105386;1254;60985;-45
2023/01/08 04:24:41;;;;;;;11.50;3.80;;;;;;;;;;105437;1257;59215;-46
2023/01/08 04:27:07;;;;;;;13.20;4.30;;;;;;;;;;105577;1253;63160;-43
2023/01/08 04:29:34;;;;;;;14.30;5.40;;;;;;;;;;105082;1253;60398;-42
2023/01/08 04:32:01;;;;;;;15.50;6.00;;;;;;;;;;105095;1254;60614;-44
2023/01/08 04:34:27;;;;;;;12.50;3.80;;;;;;;;;;104935;1258;60616;-43
2023/01/08 04:36:54;;;;;;;11.60;4.30;;;;;;;;;;105292;1251;60398;-44
2023/01/08 04:39:21;;;;;;;13.70;5.00;;;;;;;;;;105414;1252;63094;-44
2023/01/08 04:41:47;;;;;;;16.80;4.90;;;;;;;;;;105385;1254;60645;-44
2023/01/08 04:44:14;;;;;;;17.90;5.40;;;;;;;;;;105415;1257;61558;-43
2023/01/08 04:46:41;;;;;;;11.50;4.00;;;;;;;;;;105368;1258;60443;-43
2023/01/08 04:49:08;;;;;;;15.70;4.00;;;;;;;;;;105114;1257;60503;-44
2023/01/08 04:51:35;;;;;;;11.10;4.00;;;;;;;;;;105078;1254;61938;-44
2023/01/08 04:54:02;;;;;;;15.30;5.30;;;;;;;;;;104908;1257;60550;-44
2023/01/08 04:56:30;;;;;;;13.50;4.70;;;;;;;;;;105344;1254;60773;-44
2023/01/08 04:58:57;;;;;;;13.50;5.00;;;;;;;;;;105531;1258;60793;-44
2023/01/08 05:01:24;;;;;;;16.30;4.90;;;;;;;;;;105409;1253;60927;-43
2023/01/08 05:03:54;;;;;;;12.90;5.20;;;;;;;;;;105320;1254;63047;-45
2023/01/08 05:06:21;;;;;;;12.80;5.40;;;;;;;;;;105131;1253;60403;-44
2023/01/08 05:08:48;;;;;;;15.30;6.00;;;;;;;;;;104949;1253;60859;-43
2023/01/08 05:11:14;;;;;;;16.90;6.60;;;;;;;;;;104994;1253;60862;-45
2023/01/08 05:13:41;;;;;;;18.40;5.90;;;;;;;;;;104933;1257;60611;-45
2023/01/08 05:16:08;;;;;;;18.90;5.90;;;;;;;;;;105300;1257;62362;-43
2023/01/08 05:18:34;;;;;;;15.20;6.20;;;;;;;;;;105308;1257;60427;-44
2023/01/08 05:21:01;;;;;;;18.00;6.30;;;;;;;;;;105338;1257;61107;-45
2023/01/08 05:23:28;;;;;;;23.80;7.40;;;;;;;;;;105238;1258;60473;-41
2023/01/08 05:25:56;;;;;;;15.80;6.60;;;;;;;;;;105111;1257;60531;-45
2023/01/08 05:28:23;;;;;;;18.50;6.50;;;;;;;;;;105148;1252;63257;-44
2023/01/08 05:30:50;;;;;;;20.10;7.30;;;;;;;;;;105063;1258;60408;-47
2023/01/08 05:33:17;;;;;;;22.10;7.90;;;;;;;;;;105063;1257;61963;-43
2023/01/08 05:35:44;;;;;;;15.20;6.30;;;;;;;;;;105195;1254;60409;-44
2023/01/08 05:38:10;;;;;;;18.80;7.90;;;;;;;;;;105093;1256;60351;-45
2023/01/08 05:40:37;;;;;;;22.00;7.60;;;;;;;;;;105415;1254;63421;-46
2023/01/08 05:43:04;;;;;;;20.90;8.20;;;;;;;;;;105485;1258;60528;-46
2023/01/08 05:45:31;;;;;;;22.80;9.00;;;;;;;;;;109147;1253;60617;-45
2023/01/08 05:47:58;;;;;;;20.90;8.00;;;;;;;;;;109020;1252;59558;-43
2023/01/08 05:50:24;;;;;;;21.90;9.40;;;;;;;;;;105299;1253;60692;-42
2023/01/08 05:52:51;;;;;;;22.00;8.70;;;;;;;;;;105111;1253;63183;-44
2023/01/08 05:55:18;;;;;;;24.90;9.10;;;;;;;;;;105238;1251;60544;-44
2023/01/08 05:57:45;;;;;;;19.60;7.80;;;;;;;;;;109123;1254;62997;-47
2023/01/08 06:00:12;;;;;;;23.30;9.50;;;;;;;;;;109091;1257;58520;-46
2023/01/08 06:02:38;;;;;;;21.20;8.30;;;;;;;;;;109205;1253;58299;-46
2023/01/08 06:05:05;;;;;;;22.50;8.50;;;;;;;;;;109167;1252;62635;-46
2023/01/08 06:07:32;;;;;;;21.10;8.90;;;;;;;;;;109194;1253;58273;-46
2023/01/08 06:09:58;;;;;;;21.00;8.30;;;;;;;;;;109188;1253;60943;-46
2023/01/08 06:12:25;;;;;;;21.00;8.50;;;;;;;;;;109180;1253;58539;-47
2023/01/08 06:14:52;;;;;;;18.50;6.00;;;;;;;;;;107628;1252;60494;-45
2023/01/08 06:17:18;;;;;;;21.80;8.30;;;;;;;;;;104978;1254;61802;-45
2023/01/08 06:19:46;;;;;;;19.10;7.00;;;;;;;;;;105202;1255;62670;-45
2023/01/08 06:22:13;;;;;;;19.40;8.40;;;;;;;;;;105437;1257;60941;-45
2023/01/08 06:24:39;;;;;;;28.10;8.60;;;;;;;;;;105452;1252;60519;-44
2023/01/08 06:27:06;;;;;;;18.30;8.30;;;;;;;;;;105385;1258;60415;-45
2023/01/08 06:29:33;;;;;;;26.30;7.50;;;;;;;;;;105070;1253;62929;-45
2023/01/08 06:31:59;;;;;;;25.90;9.00;;;;;;;;;;104889;1254;60876;-45
2023/01/08 06:34:26;;;;;;;20.90;8.50;;;;;;;;;;104970;1253;61866;-45
2023/01/08 06:36:53;;;;;;;26.10;8.00;;;;;;;;;;105217;1253;60419;-45
2023/01/08 06:39:19;;;;;;;24.40;9.10;;;;;;;;;;105371;1253;60455;-46
2023/01/08 06:41:46;;;;;;;23.80;8.10;;;;;;;;;;105386;1257;63235;-45
2023/01/08 06:44:12;;;;;;;28.00;8.20;;;;;;;;;;105342;1254;60512;-45
2023/01/08 06:46:39;;;;;;;26.80;8.50;;;;;;;;;;105348;1255;61790;-46
2023/01/08 06:49:06;;;;;;;25.10;8.30;;;;;;;;;;105043;1257;60425;-43
2023/01/08 06:51:32;;;;;;;22.50;8.00;;;;;;;;;;104938;1253;60476;-45
2023/01/08 06:53:59;;;;;;;20.70;8.10;;;;;;;;;;104888;1253;63279;-44
2023/01/08 06:56:26;;;;;;;18.70;7.70;;;;;;;;;;105184;1254;61326;-43
2023/01/08 06:58:52;;;;;;;21.50;8.10;;;;;;;;;;105482;1255;61924;-44
2023/01/08 07:01:19;;;;;;;23.20;8.60;;;;;;;;;;105549;1257;60531;-44
2023/01/08 07:03:46;;;;;;;25.30;8.70;;;;;;;;;;105637;1253;60464;-46
2023/01/08 07:06:19;;;;;;;22.80;8.20;;;;;;;;;;105469;1257;63220;-45
2023/01/08 07:08:46;;;;;;;30.70;10.20;;;;;;;;;;105096;1253;60306;-45
2023/01/08 07:11:12;;;;;;;28.90;8.30;;;;;;;;;;105090;1253;60578;-46
2023/01/08 07:13:39;;;;;;;25.10;9.70;;;;;;;;;;105208;1252;60538;-46
2023/01/08 07:16:06;;;;;;;29.00;8.70;;;;;;;;;;105236;1253;60425;-47
2023/01/08 07:18:33;;;;;;;25.50;8.00;;;;;;;;;;105432;1256;62881;-47
2023/01/08 07:21:01;;;;;;;22.70;8.80;;;;;;;;;;105391;1255;60512;-49
2023/01/08 07:23:27;;;;;;;17.80;7.60;;;;;;;;;;105268;1257;62450;-45
2023/01/08 07:25:54;;;;;;;28.40;8.50;;;;;;;;;;105021;1253;60536;-46
2023/01/08 07:28:21;;;;;;;22.30;7.30;;;;;;;;;;105094;1257;60512;-46
2023/01/08 07:30:47;;;;;;;26.30;7.00;;;;;;;;;;105223;1252;61972;-46
2023/01/08 07:33:14;;;;;;;23.00;8.30;;;;;;;;;;105225;1256;60393;-46
2023/01/08 07:35:41;;;;;;;22.50;8.10;;;;;;;;;;105399;1257;61852;-45
2023/01/08 07:38:07;;;;;;;26.60;7.70;;;;;;;;;;105409;1257;60547;-46
2023/01/08 07:40:34;;;;;;;27.20;8.10;;;;;;;;;;105365;1253;60416;-46
2023/01/08 07:43:05;;;;;;;21.70;7.80;;;;;;;;;;105636;1253;62994;-46
2023/01/08 07:45:32;;;;;;;25.00;7.50;;;;;;;;;;105432;1253;59327;-44
2023/01/08 07:47:59;;;;;;;16.30;4.80;;;;;;;;;;105242;1253;60655;-47
2023/01/08 07:50:25;;;;;;;18.60;5.90;;;;;;;;;;105209;1255;60566;-47
2023/01/08 07:52:52;;;;;;;26.70;7.60;;;;;;;;;;104975;1253;60521;-48
2023/01/08 07:55:19;;;;;;;20.40;6.30;;;;;;;;;;105339;1254;63241;-45
2023/01/08 07:57:45;;;;;;;14.00;4.90;;;;;;;;;;105175;1253;60331;-48
2023/01/08 08:00:13;;;;;;;14.70;5.40;;;;;;;;;;105372;1254;60483;-45
2023/01/08 08:02:40;;;;;;;17.10;5.50;;;;;;;;;;105860;1253;60443;-47
2023/01/08 08:05:07;;;;;;;16.80;6.80;;;;;;;;;;105250;1251;60514;-43
2023/01/08 08:07:34;;;;;;;9.70;3.60;;;;;;;;;;105176;1253;63278;-45
2023/01/08 08:10:02;;;;;;;15.00;5.80;;;;;;;;;;105116;1256;60373;-46
2023/01/08 08:12:28;;;;;;;12.60;5.90;;;;;;;;;;105371;1253;61837;-46
2023/01/08 08:14:56;;;;;;;12.80;5.30;;;;;;;;;;105446;1253;60436;-45
2023/01/08 08:17:23;;;;;;;18.20;6.10;;;;;;;;;;105294;1253;60483;-45
2023/01/08 08:19:50;;;;;;;16.50;6.20;;;;;;;;;;105435;1253;62171;-45
2023/01/08 08:22:16;;;;;;;15.70;6.80;;;;;;;;;;105479;1253;60547;-46
2023/01/08 08:24:44;;;;;;;11.20;4.40;;;;;;;;;;105089;1252;63721;-45
2023/01/08 08:27:11;;;;;;;18.50;5.70;;;;;;;;;;105177;1253;60455;-44
2023/01/08 08:29:37;;;;;;;28.10;10.60;;;;;;;;;;105082;1257;60332;-46
2023/01/08 08:32:04;;;;;;;16.80;7.00;;;;;;;;;;105321;1258;63491;-46
2023/01/08 08:34:31;;;;;;;15.50;5.80;;;;;;;;;;105370;1254;60544;-46
2023/01/08 08:36:58;;;;;;;12.20;4.10;;;;;;;;;;109148;1253;61886;-48
2023/01/08 08:39:25;;;;;;;10.60;4.80;;;;;;;;;;109176;1253;58449;-47
2023/01/08 08:41:51;;;;;;;11.90;4.50;;;;;;;;;;109096;1256;58087;-44
2023/01/08 08:44:18;;;;;;;9.60;4.60;;;;;;;;;;109134;1253;62929;-45
2023/01/08 08:46:45;;;;;;;13.20;4.00;;;;;;;;;;109203;1252;58876;-45
2023/01/08 08:49:11;;;;;;;11.30;4.10;;;;;;;;;;109193;1252;60850;-44
2023/01/08 08:51:38;;;;;;;7.30;3.20;;;;;;;;;;109180;1253;58498;-45
2023/01/08 08:54:05;;;;;;;10.50;4.90;;;;;;;;;;109200;1252;58272;-46
2023/01/08 08:56:31;;;;;;;11.10;4.60;;;;;;;;;;109207;1253;63263;-44
2023/01/08 08:58:58;;;;;;;12.00;5.40;;;;;;;;;;109023;1252;58472;-45
2023/01/08 09:01:25;;;;;;;10.20;4.10;;;;;;;;;;109101;1253;60741;-45
2023/01/08 09:03:51;;;;;;;7.80;3.80;;;;;;;;;;109154;1253;58639;-45
2023/01/08 09:06:18;;;;;;;6.20;3.20;;;;;;;;;;109176;1253;58527;-46
2023/01/08 09:08:45;;;;;;;11.60;3.90;;;;;;;;;;108166;1256;62097;-46
2023/01/08 09:11:11;;;;;;;10.60;4.50;;;;;;;;;;105304;1253;60473;-45
2023/01/08 09:13:40;;;;;;;6.70;2.90;;;;;;;;;;105375;1253;61573;-45
2023/01/08 09:16:06;;;;;;;9.50;3.90;;;;;;;;;;105273;1253;59543;-46
2023/01/08 09:18:33;;;;;;;11.90;4.70;;;;;;;;;;105450;1258;60470;-46
2023/01/08 09:21:04;;;;;;;11.60;4.80;;;;;;;;;;105260;1253;61928;-44
2023/01/08 09:24:54;;;;;;;11.50;4.50;;;;;;;;;;102423;1285;601144;-44
2023/01/08 09:27:20;;;;;;;12.10;5.70;;;;;;;;;;104091;1266;58851;-45
2023/01/08 09:29:47;;;;;;;11.90;5.10;;;;;;;;;;104155;1266;59157;-44
2023/01/08 09:32:14;;;;;;;14.30;5.30;;;;;;;;;;104452;1271;59308;-46
2023/01/08 09:34:40;;;;;;;11.50;5.80;;;;;;;;;;103763;1266;58977;-45
2023/01/08 09:37:07;;;;;;;15.30;7.60;;;;;;;;;;103998;1266;61555;-44
2023/01/08 09:39:34;;;;;;;13.70;6.00;;;;;;;;;;104450;1265;120772;-48
2023/01/08 09:42:01;;;;;;;14.60;6.50;;;;;;;;;;104487;1263;60724;-46
2023/01/08 09:44:29;;;;;;;15.90;5.50;;;;;;;;;;108345;1263;60501;-44
2023/01/08 09:46:57;;;;;;;16.60;6.50;;;;;;;;;;108333;1263;57760;-47
2023/01/08 09:49:25;;;;;;;11.10;5.60;;;;;;;;;;108184;1263;61644;-48
2023/01/08 09:51:51;;;;;;;11.70;5.70;;;;;;;;;;108382;1265;57745;-46
2023/01/08 09:54:18;;;;;;;11.10;6.10;;;;;;;;;;108470;1263;57310;-45
2023/01/08 09:56:45;;;;;;;12.40;6.50;;;;;;;;;;108453;1262;61187;-45
2023/01/08 09:59:12;;;;;;;10.70;6.30;;;;;;;;;;108822;1256;57684;-47
2023/01/08 10:01:39;;;;;;;15.00;6.40;;;;;;;;;;108784;1256;61899;-44
2023/01/08 10:04:14;;;;;;;13.00;5.90;;;;;;;;;;108830;1256;57669;-46
2023/01/08 10:06:42;;;;;;;7.90;4.40;;;;;;;;;;108862;1255;57725;-45
2023/01/08 10:09:11;;;;;;;10.80;5.50;;;;;;;;;;108826;1256;62461;-47
2023/01/08 10:11:39;;;;;;;9.90;5.50;;;;;;;;;;108907;1256;57385;-44
2023/01/08 10:14:07;;;;;;;9.60;5.50;;;;;;;;;;108836;1261;62178;-45
2023/01/08 10:18:19;;;;;;;10.30;4.90;;;;;;;;;;102464;1290;600456;-44
2023/01/08 10:20:46;;;;;;;11.90;6.50;;;;;;;;;;104810;1264;59173;-44
2023/01/08 10:23:16;;;;;;;7.40;4.30;;;;;;;;;;104876;1269;58988;-46
2023/01/08 10:25:52;;;;;;;12.20;6.50;;;;;;;;;;104886;1267;61102;-46
2023/01/08 10:28:20;;;;;;;11.80;6.20;;;;;;;;;;108392;1265;57322;-46
2023/01/08 10:30:46;;;;;;;9.60;5.30;;;;;;;;;;108441;1266;60828;-48
2023/01/08 10:33:23;;;;;;;9.60;5.30;;;;;;;;;;108436;1263;57334;-45
2023/01/08 10:35:51;;;;;;;13.40;6.10;;;;;;;;;;108547;1264;57077;-47
2023/01/08 10:38:27;;;;;;;7.50;4.10;;;;;;;;;;109165;1254;61615;-45
2023/01/08 10:40:53;;;;;;;9.10;5.40;;;;;;;;;;109102;1254;57786;-47
2023/01/08 10:43:21;;;;;;;10.00;5.30;;;;;;;;;;108976;1254;61739;-44
2023/01/08 10:45:55;;;;;;;8.10;3.50;;;;;;;;;;108944;1254;58484;-43
2023/01/08 10:48:22;;;;;;;10.10;5.00;;;;;;;;;;108952;1254;58968;-44
2023/01/08 10:50:48;;;;;;;9.50;4.60;;;;;;;;;;108998;1253;61291;-44
2023/01/08 10:53:25;;;;;;;10.10;5.00;;;;;;;;;;109088;1254;57823;-43
2023/01/08 10:55:59;;;;;;;10.40;5.50;;;;;;;;;;109116;1254;61875;-44
2023/01/08 10:58:26;;;;;;;8.80;5.80;;;;;;;;;;109160;1253;58364;-43
2023/01/08 11:00:52;;;;;;;10.90;5.80;;;;;;;;;;109084;1253;57599;-43
2023/01/08 11:03:30;;;;;;;9.90;5.40;;;;;;;;;;109127;1254;61183;-44
2023/01/08 11:05:56;;;;;;;10.90;5.50;;;;;;;;;;109177;1254;57680;-45
2023/01/08 11:08:26;;;;;;;8.40;4.20;;;;;;;;;;109172;1254;61721;-47
2023/01/08 11:10:57;;;;;;;10.30;6.40;;;;;;;;;;108929;1259;57673;-47
2023/01/08 11:13:23;;;;;;;10.10;5.50;;;;;;;;;;109059;1259;57833;-45
2023/01/08 11:16:04;;;;;;;10.80;6.00;;;;;;;;;;109153;1254;62420;-47
2023/01/08 11:18:31;;;;;;;8.70;5.10;;;;;;;;;;108893;1256;59584;-43
2023/01/08 11:21:05;;;;;;;12.90;5.40;;;;;;;;;;108969;1257;61920;-46
2023/01/08 11:23:32;;;;;;;10.10;5.90;;;;;;;;;;106563;1262;59163;-45
2023/01/08 11:26:00;;;;;;;9.30;4.60;;;;;;;;;;104310;1258;59615;-44
2023/01/08 11:28:29;;;;;;;9.60;5.00;;;;;;;;;;108895;1257;62480;-46
2023/01/08 11:31:05;;;;;;;8.20;4.10;;;;;;;;;;108874;1257;57464;-44
2023/01/08 11:33:32;;;;;;;9.40;3.60;;;;;;;;;;108847;1257;60960;-46
2023/01/08 11:36:04;;;;;;;8.60;4.30;;;;;;;;;;108957;1257;57433;-44
2023/01/08 11:38:31;;;;;;;7.80;4.60;;;;;;;;;;108956;1257;57569;-47
2023/01/08 11:41:16;;;;;;;9.80;4.80;;;;;;;;;;106408;1255;62550;-43
2023/01/08 11:43:45;;;;;;;12.80;5.40;;;;;;;;;;106314;1259;59605;-43
2023/01/08 11:46:24;;;;;;;10.40;5.50;;;;;;;;;;105116;1260;61981;-42
2023/01/08 11:48:51;;;;;;;11.00;5.40;;;;;;;;;;104833;1260;59790;-45
2023/01/08 11:51:30;;;;;;;12.70;5.00;;;;;;;;;;104853;1261;59733;-41
2023/01/08 11:53:58;;;;;;;9.30;4.40;;;;;;;;;;108869;1257;61080;-44
2023/01/08 11:56:45;;;;;;;18.00;6.70;;;;;;;;;;108921;1254;58448;-45
2023/01/08 11:59:16;;;;;;;11.90;5.60;;;;;;;;;;108952;1259;61816;-44
2023/01/08 12:01:48;;;;;;;12.00;6.10;;;;;;;;;;108931;1257;57623;-45
2023/01/08 12:04:34;;;;;;;10.10;5.20;;;;;;;;;;107340;1258;59819;-42
2023/01/08 12:07:01;;;;;;;9.20;3.60;;;;;;;;;;105392;1261;61217;-42
2023/01/08 12:09:49;;;;;;;8.50;4.40;;;;;;;;;;105251;1258;58998;-44
2023/01/08 12:12:29;;;;;;;11.10;4.40;;;;;;;;;;108950;1254;60599;-44
2023/01/08 12:15:00;;;;;;;10.70;4.50;;;;;;;;;;108954;1257;57496;-44
2023/01/08 12:17:32;;;;;;;11.80;4.80;;;;;;;;;;109098;1255;57507;-44
2023/01/08 12:20:02;;;;;;;9.30;3.70;;;;;;;;;;109288;1257;61983;-46
2023/01/08 12:22:43;;;;;;;5.10;3.10;;;;;;;;;;109260;1254;57763;-46
2023/01/08 12:25:21;;;;;;;8.50;3.50;;;;;;;;;;109192;1254;61345;-45
2023/01/08 12:27:54;;;;;;;6.00;4.00;;;;;;;;;;109211;1258;58541;-45
2023/01/08 12:30:24;;;;;;;8.80;4.10;;;;;;;;;;109127;1259;57589;-47
2023/01/08 12:33:00;;;;;;;6.70;3.90;;;;;;;;;;107873;1258;61102;-43
2023/01/08 12:35:28;;;;;;;9.90;4.30;;;;;;;;;;105321;1254;59716;-43
2023/01/08 12:38:05;;;;;;;5.20;2.90;;;;;;;;;;105506;1255;60497;-44
2023/01/08 12:40:32;;;;;;;6.90;3.80;;;;;;;;;;105230;1254;59787;-43
2023/01/08 12:42:59;;;;;;;8.00;3.70;;;;;;;;;;106625;1259;59647;-46
2023/01/08 12:45:29;;;;;;;8.20;4.30;;;;;;;;;;105441;1260;62385;-45
2023/01/08 12:48:03;;;;;;;8.90;4.30;;;;;;;;;;105651;1258;59649;-41
2023/01/08 12:50:38;;;;;;;9.40;5.70;;;;;;;;;;105407;1261;60898;-44
2023/01/08 12:53:21;;;;;;;5.20;2.50;;;;;;;;;;105452;1257;60651;-43
2023/01/08 12:55:59;;;;;;;8.90;3.10;;;;;;;;;;107756;1255;59640;-45
2023/01/08 12:58:35;;;;;;;6.90;2.80;;;;;;;;;;105449;1260;61148;-44
2023/01/08 13:01:02;;;;;;;7.60;3.10;;;;;;;;;;105184;1254;59579;-45
2023/01/08 13:03:28;;;;;;;8.20;3.40;;;;;;;;;;105262;1254;62449;-44
2023/01/08 13:06:06;;;;;;;7.60;3.70;;;;;;;;;;105232;1260;59481;-44
2023/01/08 13:08:33;;;;;;;8.90;4.60;;;;;;;;;;105224;1267;59927;-45
2023/01/08 13:11:00;;;;;;;8.80;4.60;;;;;;;;;;105830;1258;61474;-44
2023/01/08 13:13:30;;;;;;;9.10;3.60;;;;;;;;;;105232;1254;59817;-42
2023/01/08 13:16:06;;;;;;;10.40;3.60;;;;;;;;;;105342;1260;61606;-44
2023/01/08 13:18:33;;;;;;;10.10;5.20;;;;;;;;;;105329;1260;59704;-46
2023/01/08 13:21:00;;;;;;;11.00;3.10;;;;;;;;;;105188;1259;59706;-45
2023/01/08 13:23:27;;;;;;;7.80;4.00;;;;;;;;;;105697;1259;62589;-43
2023/01/08 13:25:54;;;;;;;9.50;4.30;;;;;;;;;;105434;1260;59838;-46
2023/01/08 13:28:25;;;;;;;9.70;4.70;;;;;;;;;;105641;1255;60557;-45
2023/01/08 13:30:54;;;;;;;10.60;4.50;;;;;;;;;;105381;1260;59944;-44
2023/01/08 13:33:25;;;;;;;9.50;5.10;;;;;;;;;;105703;1254;59811;-44
2023/01/08 13:36:11;;;;;;;8.90;3.30;;;;;;;;;;105655;1258;62178;-43
2023/01/08 13:38:41;;;;;;;8.70;3.90;;;;;;;;;;105661;1258;59816;-45
2023/01/08 13:41:26;;;;;;;10.90;3.40;;;;;;;;;;105579;1255;61456;-44
2023/01/08 13:44:04;;;;;;;9.20;4.10;;;;;;;;;;105617;1260;59755;-45
2023/01/08 13:46:31;;;;;;;14.10;5.80;;;;;;;;;;105833;1260;59621;-44
2023/01/08 13:48:58;;;;;;;13.10;5.50;;;;;;;;;;105654;1264;62317;-45
2023/01/08 13:51:24;;;;;;;11.00;4.90;;;;;;;;;;105573;1264;59719;-43
2023/01/08 13:53:51;;;;;;;11.70;5.90;;;;;;;;;;105612;1259;61284;-45
2023/01/08 13:56:20;;;;;;;14.80;6.00;;;;;;;;;;105258;1262;59863;-45
2023/01/08 13:58:50;;;;;;;11.60;4.90;;;;;;;;;;105492;1254;59721;-44
2023/01/08 14:01:17;;;;;;;12.60;5.70;;;;;;;;;;105484;1259;62390;-44
2023/01/08 14:03:44;;;;;;;15.00;6.00;;;;;;;;;;105426;1258;59643;-45
2023/01/08 14:06:24;;;;;;;14.50;5.50;;;;;;;;;;105272;1254;60594;-44
2023/01/08 14:08:51;;;;;;;13.80;6.10;;;;;;;;;;105407;1258;59670;-45
2023/01/08 14:11:18;;;;;;;18.70;7.10;;;;;;;;;;106014;1257;59627;-45
2023/01/08 14:13:45;;;;;;;15.60;6.20;;;;;;;;;;105336;1259;62543;-44
2023/01/08 14:16:12;;;;;;;14.20;6.10;;;;;;;;;;105592;1251;59530;-44
2023/01/08 14:18:40;;;;;;;14.60;6.20;;;;;;;;;;105491;1257;60933;-43
2023/01/08 14:21:06;;;;;;;17.00;6.00;;;;;;;;;;105493;1251;59666;-46
2023/01/08 14:23:35;;;;;;;21.20;7.00;;;;;;;;;;105620;1251;59688;-46
2023/01/08 14:26:04;;;;;;;13.20;5.90;;;;;;;;;;109342;1251;61483;-46
2023/01/08 14:28:30;;;;;;;17.60;6.50;;;;;;;;;;109343;1254;57392;-46
2023/01/08 14:30:58;;;;;;;15.50;5.60;;;;;;;;;;109369;1250;60826;-46
2023/01/08 14:33:36;;;;;;;19.90;6.50;;;;;;;;;;109360;1251;58288;-46
2023/01/08 14:36:04;;;;;;;15.40;5.80;;;;;;;;;;109369;1251;58285;-46